Time;durP1;ratioP1;P1;durP2;ratioP2;P2;SDS_P1;SDS_P2;PMS_P1;PMS_P2;Temp;Humidity;BMP_temperature;BMP_pressure;BME280_temperature;BME280_humidity;BME280_pressure;Samples;Min_cycle;Max_cycle;Signal;HPM_P1;HPM_P2
2023/06/15 00:00:56;;;;;;;3.15;2.80;;;;;;;;;;5137014;27;20058;-60
2023/06/15 00:03:23;;;;;;;3.63;2.88;;;;;;;;;;5122870;27;20060;-59
2023/06/15 00:05:51;;;;;;;4.38;2.63;;;;;;;;;;5112093;28;20044;-60
2023/06/15 00:08:18;;;;;;;4.25;2.70;;;;;;;;;;5111806;27;20047;-60
2023/06/15 00:10:45;;;;;;;5.20;2.92;;;;;;;;;;5115955;28;20052;-60
2023/06/15 00:13:12;;;;;;;4.00;3.20;;;;;;;;;;5115952;28;20047;-59
2023/06/15 00:15:39;;;;;;;3.50;2.70;;;;;;;;;;5116267;28;20393;-59
2023/06/15 00:18:07;;;;;;;3.65;2.75;;;;;;;;;;5116034;28;20055;-58
2023/06/15 00:20:34;;;;;;;4.97;3.13;;;;;;;;;;5114873;28;20052;-58
2023/06/15 00:23:01;;;;;;;4.93;3.10;;;;;;;;;;5111605;28;20047;-58
2023/06/15 00:25:28;;;;;;;3.70;3.13;;;;;;;;;;5116023;28;20400;-58
2023/06/15 00:27:55;;;;;;;4.25;3.85;;;;;;;;;;5115836;28;20047;-59
2023/06/15 00:30:22;;;;;;;4.50;2.85;;;;;;;;;;5113836;28;20416;-58
2023/06/15 00:32:48;;;;;;;5.45;3.45;;;;;;;;;;5115398;28;20047;-59
2023/06/15 00:35:17;;;;;;;3.70;3.13;;;;;;;;;;5115713;28;20063;-58
2023/06/15 00:37:44;;;;;;;3.78;2.95;;;;;;;;;;5111060;28;20055;-58
2023/06/15 00:40:11;;;;;;;4.50;3.13;;;;;;;;;;5110734;28;20056;-59
2023/06/15 00:42:38;;;;;;;3.85;3.08;;;;;;;;;;5115723;28;20074;-59
2023/06/15 00:45:06;;;;;;;4.95;3.00;;;;;;;;;;5115397;28;20061;-58
2023/06/15 00:47:33;;;;;;;4.70;2.95;;;;;;;;;;5115719;28;20489;-58
2023/06/15 00:50:00;;;;;;;4.65;3.10;;;;;;;;;;5110602;28;20078;-59
2023/06/15 00:52:28;;;;;;;4.53;3.28;;;;;;;;;;5114703;28;20063;-58
2023/06/15 00:54:55;;;;;;;4.10;3.28;;;;;;;;;;5130359;27;20503;-59
2023/06/15 00:57:24;;;;;;;4.13;2.92;;;;;;;;;;5135934;27;20345;-58
2023/06/15 00:59:51;;;;;;;6.10;3.22;;;;;;;;;;5114927;28;20052;-59
2023/06/15 01:02:18;;;;;;;5.57;3.20;;;;;;;;;;5115333;28;20492;-59
2023/06/15 01:04:44;;;;;;;3.75;2.90;;;;;;;;;;5115277;28;20062;-59
2023/06/15 01:07:12;;;;;;;3.95;3.08;;;;;;;;;;5111686;28;20043;-59
2023/06/15 01:09:41;;;;;;;3.88;3.47;;;;;;;;;;5109979;28;20059;-58
2023/06/15 01:12:11;;;;;;;3.88;3.35;;;;;;;;;;5115590;28;20063;-59
2023/06/15 01:14:37;;;;;;;;;;;;;;;;;;5097027;28;20052;-58
2023/06/15 01:17:06;;;;;;;3.42;3.05;;;;;;;;;;5103898;28;19924;-58
2023/06/15 01:19:39;;;;;;;4.22;3.17;;;;;;;;;;5094714;28;20059;-59
2023/06/15 01:22:08;;;;;;;3.45;3.15;;;;;;;;;;5094920;28;20048;-58
2023/06/15 01:24:36;;;;;;;5.47;3.45;;;;;;;;;;5091036;27;20055;-59
2023/06/15 01:27:09;;;;;;;3.72;3.33;;;;;;;;;;5110361;28;20043;-59
2023/06/15 01:29:36;;;;;;;5.80;3.30;;;;;;;;;;5114710;28;20399;-59
2023/06/15 01:32:05;;;;;;;5.63;3.70;;;;;;;;;;5114964;28;20078;-59
2023/06/15 01:34:31;;;;;;;4.38;3.05;;;;;;;;;;5105883;28;20423;-59
2023/06/15 01:36:59;;;;;;;3.83;3.30;;;;;;;;;;5113473;28;20047;-58
2023/06/15 01:39:26;;;;;;;4.80;2.97;;;;;;;;;;5106608;27;20054;-59
2023/06/15 01:41:52;;;;;;;4.25;3.22;;;;;;;;;;5114856;28;20056;-59
2023/06/15 01:44:21;;;;;;;3.55;3.08;;;;;;;;;;5113725;27;20051;-59
2023/06/15 01:46:49;;;;;;;5.28;3.70;;;;;;;;;;5110893;28;20048;-59
2023/06/15 01:49:16;;;;;;;5.65;3.38;;;;;;;;;;5114618;28;20056;-59
2023/06/15 01:51:43;;;;;;;6.88;3.58;;;;;;;;;;5114773;28;20054;-59
2023/06/15 01:54:11;;;;;;;3.85;3.40;;;;;;;;;;5110598;28;20043;-59
2023/06/15 01:56:38;;;;;;;4.70;3.63;;;;;;;;;;5109813;27;20051;-59
2023/06/15 01:59:04;;;;;;;5.55;3.45;;;;;;;;;;5134844;27;20403;-60
2023/06/15 02:01:33;;;;;;;5.45;3.20;;;;;;;;;;5126908;27;20047;-60
2023/06/15 02:03:59;;;;;;;6.65;3.63;;;;;;;;;;5127609;27;20058;-60
2023/06/15 02:06:28;;;;;;;5.32;3.95;;;;;;;;;;5114353;28;20051;-59
2023/06/15 02:08:56;;;;;;;7.10;3.53;;;;;;;;;;5109273;28;20056;-59
2023/06/15 02:11:22;;;;;;;7.72;3.97;;;;;;;;;;5111654;27;20059;-59
2023/06/15 02:13:50;;;;;;;4.88;3.70;;;;;;;;;;5113130;28;20059;-59
2023/06/15 02:16:19;;;;;;;5.68;3.70;;;;;;;;;;5113062;28;20052;-59
2023/06/15 02:18:48;;;;;;;4.38;3.70;;;;;;;;;;5113697;28;20416;-59
2023/06/15 02:21:15;;;;;;;6.13;3.53;;;;;;;;;;5114044;28;20431;-60
2023/06/15 02:23:42;;;;;;;4.38;3.65;;;;;;;;;;5108606;28;20055;-60
2023/06/15 02:26:09;;;;;;;5.57;3.50;;;;;;;;;;5122439;27;20059;-59
2023/06/15 02:28:36;;;;;;;4.43;3.50;;;;;;;;;;5113628;28;20051;-59
2023/06/15 02:31:06;;;;;;;4.72;3.30;;;;;;;;;;5113907;28;20070;-59
2023/06/15 02:33:33;;;;;;;5.25;3.55;;;;;;;;;;5111568;28;20056;-60
2023/06/15 02:36:03;;;;;;;6.70;3.50;;;;;;;;;;5113338;28;20052;-60
2023/06/15 02:38:30;;;;;;;5.63;4.00;;;;;;;;;;5106187;28;20047;-60
2023/06/15 02:40:57;;;;;;;5.47;4.03;;;;;;;;;;5107716;28;20058;-61
2023/06/15 02:43:24;;;;;;;6.35;3.95;;;;;;;;;;5113644;28;20048;-60
2023/06/15 02:45:51;;;;;;;4.95;3.83;;;;;;;;;;5112552;28;20055;-60
2023/06/15 02:48:18;;;;;;;6.03;3.97;;;;;;;;;;5113235;28;20110;-59
2023/06/15 02:50:45;;;;;;;5.22;3.80;;;;;;;;;;5113410;28;20054;-60
2023/06/15 02:53:14;;;;;;;4.30;3.90;;;;;;;;;;5113481;28;20504;-59
2023/06/15 02:55:41;;;;;;;4.13;3.72;;;;;;;;;;5107896;28;20054;-59
2023/06/15 02:58:08;;;;;;;6.43;4.53;;;;;;;;;;5113134;28;20373;-60
2023/06/15 03:00:36;;;;;;;4.93;4.05;;;;;;;;;;5112621;28;20062;-60
2023/06/15 03:03:03;;;;;;;5.63;4.10;;;;;;;;;;5114399;27;20058;-60
2023/06/15 03:05:30;;;;;;;4.28;3.20;;;;;;;;;;5115594;28;20812;-60
2023/06/15 03:07:57;;;;;;;5.05;3.50;;;;;;;;;;5112745;28;20052;-60
2023/06/15 03:10:26;;;;;;;4.30;3.90;;;;;;;;;;5103858;28;20058;-60
2023/06/15 03:12:52;;;;;;;4.30;3.67;;;;;;;;;;5113315;28;20478;-60
2023/06/15 03:15:20;;;;;;;5.13;4.05;;;;;;;;;;5111770;28;20067;-60
2023/06/15 03:17:46;;;;;;;4.68;4.20;;;;;;;;;;5113042;28;20400;-59
2023/06/15 03:20:13;;;;;;;6.22;4.10;;;;;;;;;;5111311;28;20070;-59
2023/06/15 03:22:41;;;;;;;6.22;3.92;;;;;;;;;;5112998;28;20058;-60
2023/06/15 03:25:10;;;;;;;4.63;3.67;;;;;;;;;;5108657;28;20043;-59
2023/06/15 03:27:40;;;;;;;5.38;3.50;;;;;;;;;;5112963;28;20058;-59
2023/06/15 03:30:10;;;;;;;5.05;3.75;;;;;;;;;;5111860;28;20052;-60
2023/06/15 03:32:37;;;;;;;4.60;3.55;;;;;;;;;;5112693;28;20488;-60
2023/06/15 03:35:04;;;;;;;5.35;3.78;;;;;;;;;;5112842;28;20051;-59
2023/06/15 03:37:31;;;;;;;5.95;4.05;;;;;;;;;;5111295;28;20530;-60
2023/06/15 03:39:58;;;;;;;4.93;4.43;;;;;;;;;;5093358;28;20059;-60
2023/06/15 03:42:25;;;;;;;5.35;4.30;;;;;;;;;;5111577;28;20059;-60
2023/06/15 03:44:53;;;;;;;7.38;3.92;;;;;;;;;;5112857;28;20048;-60
2023/06/15 03:47:20;;;;;;;7.35;3.72;;;;;;;;;;5113031;28;20055;-60
2023/06/15 03:49:47;;;;;;;6.63;3.78;;;;;;;;;;5112004;28;20051;-60
2023/06/15 03:52:13;;;;;;;7.00;4.10;;;;;;;;;;5112531;28;20055;-60
2023/06/15 03:54:40;;;;;;;5.30;3.92;;;;;;;;;;5108194;28;20051;-60
2023/06/15 03:57:07;;;;;;;6.53;3.92;;;;;;;;;;5112693;28;20058;-60
2023/06/15 03:59:34;;;;;;;5.25;4.00;;;;;;;;;;5111178;28;20413;-60
2023/06/15 04:02:03;;;;;;;6.00;3.72;;;;;;;;;;5112365;28;20054;-59
2023/06/15 04:04:32;;;;;;;10.03;4.30;;;;;;;;;;5112701;28;20411;-60
2023/06/15 04:06:58;;;;;;;7.07;4.27;;;;;;;;;;5112185;28;20058;-59
2023/06/15 04:09:25;;;;;;;5.47;4.15;;;;;;;;;;5108517;28;20051;-60
2023/06/15 04:11:52;;;;;;;8.18;4.60;;;;;;;;;;5110535;28;20058;-60
2023/06/15 04:14:19;;;;;;;5.20;3.97;;;;;;;;;;5109810;28;20397;-60
2023/06/15 04:16:46;;;;;;;7.18;3.83;;;;;;;;;;5112476;28;20070;-60
2023/06/15 04:19:14;;;;;;;7.40;3.72;;;;;;;;;;5112488;28;20481;-59
2023/06/15 04:21:41;;;;;;;6.57;4.20;;;;;;;;;;5112449;28;20063;-59
2023/06/15 04:24:08;;;;;;;6.82;5.80;;;;;;;;;;5116345;28;20047;-59
2023/06/15 04:26:35;;;;;;;7.75;4.43;;;;;;;;;;5133361;27;20051;-59
2023/06/15 04:29:02;;;;;;;4.85;3.80;;;;;;;;;;5136525;27;20408;-60
2023/06/15 04:31:33;;;;;;;4.32;3.92;;;;;;;;;;5136186;27;20055;-60
2023/06/15 04:34:00;;;;;;;5.80;4.25;;;;;;;;;;5126001;27;20051;-59
2023/06/15 04:36:31;;;;;;;5.68;4.25;;;;;;;;;;5115601;28;20066;-59
2023/06/15 04:38:58;;;;;;;5.75;4.70;;;;;;;;;;5100314;28;20049;-60
2023/06/15 04:41:29;;;;;;;4.82;4.15;;;;;;;;;;5105904;28;20397;-60
2023/06/15 04:43:56;;;;;;;6.85;3.97;;;;;;;;;;5114452;27;20048;-60
2023/06/15 04:46:23;;;;;;;6.70;3.88;;;;;;;;;;5107533;28;20059;-60
2023/06/15 04:48:50;;;;;;;6.50;4.43;;;;;;;;;;5125020;27;20136;-60
2023/06/15 04:51:16;;;;;;;4.97;4.47;;;;;;;;;;5127446;27;20051;-60
2023/06/15 04:53:45;;;;;;;5.93;5.03;;;;;;;;;;5131715;27;20483;-60
2023/06/15 04:56:12;;;;;;;4.90;4.15;;;;;;;;;;5118029;27;20054;-60
2023/06/15 04:58:39;;;;;;;6.28;4.93;;;;;;;;;;5115542;28;20054;-59
2023/06/15 05:01:06;;;;;;;6.10;4.82;;;;;;;;;;5107806;28;20051;-59
2023/06/15 05:03:33;;;;;;;8.68;4.70;;;;;;;;;;5110639;27;20058;-59
2023/06/15 05:06:01;;;;;;;6.32;5.03;;;;;;;;;;5108263;28;20048;-59
2023/06/15 05:08:28;;;;;;;8.07;5.13;;;;;;;;;;5114258;27;20051;-59
2023/06/15 05:10:57;;;;;;;6.78;4.60;;;;;;;;;;5115412;28;20060;-59
2023/06/15 05:13:23;;;;;;;8.20;5.10;;;;;;;;;;5113875;27;20420;-59
2023/06/15 05:15:50;;;;;;;7.40;6.30;;;;;;;;;;5114088;28;20051;-59
2023/06/15 05:18:17;;;;;;;6.22;5.22;;;;;;;;;;5115277;28;20078;-59
2023/06/15 05:20:44;;;;;;;7.05;6.30;;;;;;;;;;5110210;28;20063;-59
2023/06/15 05:23:11;;;;;;;6.82;5.13;;;;;;;;;;5111615;28;20055;-59
2023/06/15 05:25:38;;;;;;;6.88;5.47;;;;;;;;;;5109989;27;20063;-59
2023/06/15 05:28:06;;;;;;;8.98;5.25;;;;;;;;;;5110970;28;20406;-59
2023/06/15 05:30:33;;;;;;;6.38;5.50;;;;;;;;;;5115119;28;20062;-59
2023/06/15 05:33:00;;;;;;;5.70;4.95;;;;;;;;;;5114456;28;20058;-59
2023/06/15 05:35:26;;;;;;;6.40;5.65;;;;;;;;;;5112917;28;20056;-61
2023/06/15 05:37:53;;;;;;;6.88;5.35;;;;;;;;;;5100433;28;20050;-60
2023/06/15 05:40:20;;;;;;;6.88;5.30;;;;;;;;;;5114101;27;20044;-59
2023/06/15 05:42:47;;;;;;;7.55;5.03;;;;;;;;;;5114547;28;20061;-59
2023/06/15 05:45:17;;;;;;;7.35;5.68;;;;;;;;;;5112802;28;20052;-59
2023/06/15 05:47:44;;;;;;;6.82;5.55;;;;;;;;;;5101905;27;20058;-59
2023/06/15 05:50:11;;;;;;;8.93;5.53;;;;;;;;;;5102968;27;20048;-67
2023/06/15 05:52:38;;;;;;;8.10;5.28;;;;;;;;;;5107033;27;20062;-60
2023/06/15 05:55:05;;;;;;;7.43;5.32;;;;;;;;;;5113380;28;20416;-59
2023/06/15 05:57:32;;;;;;;6.40;5.80;;;;;;;;;;5110868;28;20051;-60
2023/06/15 05:59:59;;;;;;;9.25;5.57;;;;;;;;;;5104568;28;20051;-59
2023/06/15 06:02:27;;;;;;;6.18;5.25;;;;;;;;;;5105465;28;20043;-59
2023/06/15 06:04:54;;;;;;;7.95;5.03;;;;;;;;;;5102938;28;20055;-60
2023/06/15 06:07:20;;;;;;;7.65;5.40;;;;;;;;;;5117285;27;20048;-59
2023/06/15 06:09:47;;;;;;;6.55;5.05;;;;;;;;;;5105300;28;20516;-59
2023/06/15 06:12:14;;;;;;;5.55;3.95;;;;;;;;;;5106459;28;20043;-60
2023/06/15 06:14:41;;;;;;;6.30;4.57;;;;;;;;;;5103746;28;20048;-59
2023/06/15 06:17:08;;;;;;;7.10;4.55;;;;;;;;;;5105970;28;20465;-59
2023/06/15 06:19:36;;;;;;;7.32;4.88;;;;;;;;;;5111982;27;20436;-59
2023/06/15 06:22:03;;;;;;;5.78;4.55;;;;;;;;;;5102325;28;20056;-59
2023/06/15 06:24:30;;;;;;;7.82;4.97;;;;;;;;;;5108841;28;20055;-59
2023/06/15 06:26:57;;;;;;;6.38;4.57;;;;;;;;;;5110170;28;20050;-59
2023/06/15 06:29:24;;;;;;;7.38;5.60;;;;;;;;;;5102359;28;20048;-59
2023/06/15 06:31:50;;;;;;;7.38;4.63;;;;;;;;;;5109360;28;20401;-61
2023/06/15 06:34:17;;;;;;;6.95;4.75;;;;;;;;;;5112285;28;20055;-59
2023/06/15 06:36:45;;;;;;;6.68;4.90;;;;;;;;;;5104272;28;20488;-59
2023/06/15 06:39:12;;;;;;;6.85;4.88;;;;;;;;;;5113848;27;20046;-59
2023/06/15 06:41:39;;;;;;;6.63;4.75;;;;;;;;;;5113670;28;20062;-59
2023/06/15 06:44:06;;;;;;;5.85;4.25;;;;;;;;;;5113621;28;20055;-59
2023/06/15 06:46:33;;;;;;;7.53;5.18;;;;;;;;;;5113637;28;20468;-59
2023/06/15 06:49:00;;;;;;;5.28;4.65;;;;;;;;;;5112148;28;20062;-59
2023/06/15 06:51:27;;;;;;;6.28;4.53;;;;;;;;;;5113323;28;20059;-59
2023/06/15 06:53:55;;;;;;;8.63;4.55;;;;;;;;;;5111649;28;20055;-59
2023/06/15 06:56:22;;;;;;;6.60;4.55;;;;;;;;;;5103461;28;20070;-59
2023/06/15 06:58:49;;;;;;;5.35;4.10;;;;;;;;;;5113355;28;20063;-60
2023/06/15 07:01:16;;;;;;;7.18;4.50;;;;;;;;;;5113123;28;20476;-59
2023/06/15 07:03:43;;;;;;;4.85;3.80;;;;;;;;;;5106438;28;20047;-59
2023/06/15 07:06:12;;;;;;;5.93;4.47;;;;;;;;;;5089041;28;20063;-60
2023/06/15 07:08:38;;;;;;;4.32;3.90;;;;;;;;;;5099934;28;20412;-59
2023/06/15 07:11:06;;;;;;;6.32;4.05;;;;;;;;;;5110641;28;20048;-59
2023/06/15 07:13:34;;;;;;;4.90;3.65;;;;;;;;;;5111771;28;20485;-59
2023/06/15 07:16:00;;;;;;;4.57;3.30;;;;;;;;;;5113209;28;20047;-59
2023/06/15 07:18:27;;;;;;;8.25;3.33;;;;;;;;;;5125966;28;20438;-59
2023/06/15 07:20:54;;;;;;;6.18;3.47;;;;;;;;;;5122554;28;20048;-59
2023/06/15 07:23:25;;;;;;;5.38;3.90;;;;;;;;;;5112062;28;20492;-59
2023/06/15 07:25:52;;;;;;;3.85;2.92;;;;;;;;;;5106690;28;20048;-60
2023/06/15 07:28:20;;;;;;;4.88;3.55;;;;;;;;;;5110546;28;20067;-59
2023/06/15 07:30:49;;;;;;;5.85;3.20;;;;;;;;;;5114668;28;20373;-60
2023/06/15 07:33:16;;;;;;;3.93;3.40;;;;;;;;;;5113249;28;20055;-60
2023/06/15 07:35:44;;;;;;;4.95;3.33;;;;;;;;;;5102934;28;21039;-60
2023/06/15 07:38:13;;;;;;;4.47;3.80;;;;;;;;;;5105592;28;20062;-60
2023/06/15 07:40:40;;;;;;;5.15;3.53;;;;;;;;;;5100518;28;20468;-60
2023/06/15 07:43:07;;;;;;;6.15;3.78;;;;;;;;;;5108520;28;20062;-59
2023/06/15 07:45:36;;;;;;;5.10;3.40;;;;;;;;;;5110678;28;20059;-60
2023/06/15 07:48:03;;;;;;;4.97;3.35;;;;;;;;;;5107021;28;20059;-60
2023/06/15 07:50:30;;;;;;;5.38;3.15;;;;;;;;;;5108800;28;20063;-60
2023/06/15 07:52:57;;;;;;;4.90;3.15;;;;;;;;;;5107392;28;20058;-59
2023/06/15 07:55:24;;;;;;;5.45;3.38;;;;;;;;;;5112497;28;20058;-60
2023/06/15 07:57:51;;;;;;;3.97;2.78;;;;;;;;;;5112813;28;20079;-60
2023/06/15 08:00:18;;;;;;;3.88;2.90;;;;;;;;;;5112895;28;20404;-60
2023/06/15 08:02:48;;;;;;;4.47;2.90;;;;;;;;;;5116475;28;20055;-60
2023/06/15 08:05:16;;;;;;;5.22;2.70;;;;;;;;;;5115796;28;20043;-60
2023/06/15 08:07:42;;;;;;;3.47;2.67;;;;;;;;;;5116820;28;20051;-59
2023/06/15 08:10:10;;;;;;;4.35;3.22;;;;;;;;;;5115826;27;20043;-60
2023/06/15 08:12:36;;;;;;;4.57;2.92;;;;;;;;;;5116435;28;20047;-61
2023/06/15 08:15:03;;;;;;;4.43;3.05;;;;;;;;;;5115423;27;20078;-61
2023/06/15 08:17:30;;;;;;;3.80;3.03;;;;;;;;;;5116544;28;20060;-61
2023/06/15 08:19:58;;;;;;;5.25;3.08;;;;;;;;;;5116321;28;20047;-61
2023/06/15 08:22:27;;;;;;;7.75;3.45;;;;;;;;;;5114841;27;20055;-60
2023/06/15 08:24:54;;;;;;;;;;;;;;;;;;5116282;28;20411;-60
2023/06/15 08:27:20;;;;;;;5.32;3.00;;;;;;;;;;5116426;28;19930;-60
2023/06/15 08:29:48;;;;;;;5.53;2.90;;;;;;;;;;5116351;28;20044;-60
2023/06/15 08:32:15;;;;;;;4.13;2.92;;;;;;;;;;5115042;27;20385;-60
2023/06/15 08:34:42;;;;;;;3.63;2.80;;;;;;;;;;5115560;28;20048;-60
2023/06/15 08:37:11;;;;;;;4.35;2.70;;;;;;;;;;5107752;28;20052;-60
2023/06/15 08:39:38;;;;;;;4.35;2.70;;;;;;;;;;5115502;27;20407;-61
2023/06/15 08:42:05;;;;;;;4.13;2.80;;;;;;;;;;5116118;28;20058;-61
2023/06/15 08:44:33;;;;;;;4.27;2.47;;;;;;;;;;5115620;28;20054;-60
2023/06/15 08:47:00;;;;;;;5.10;2.95;;;;;;;;;;5116018;28;20060;-61
2023/06/15 08:49:27;;;;;;;5.07;2.97;;;;;;;;;;5114592;27;20055;-60
2023/06/15 08:51:54;;;;;;;5.32;2.78;;;;;;;;;;5115810;28;20052;-61
2023/06/15 08:54:23;;;;;;;4.25;2.70;;;;;;;;;;5115348;28;20063;-61
2023/06/15 08:56:50;;;;;;;7.35;2.97;;;;;;;;;;5115394;27;20056;-61
2023/06/15 08:59:17;;;;;;;3.60;2.67;;;;;;;;;;5115574;28;20506;-62
2023/06/15 09:01:44;;;;;;;4.40;2.57;;;;;;;;;;5115780;28;20051;-61
2023/06/15 09:04:11;;;;;;;4.80;2.78;;;;;;;;;;5117038;28;20052;-60
2023/06/15 09:06:38;;;;;;;4.15;2.63;;;;;;;;;;5114049;28;20055;-61
2023/06/15 09:09:05;;;;;;;4.60;2.85;;;;;;;;;;5115068;28;20511;-61
2023/06/15 09:11:40;;;;;;;5.97;2.90;;;;;;;;;;5106174;27;20052;-61
2023/06/15 09:14:10;;;;;;;4.13;2.80;;;;;;;;;;5114427;28;20492;-63
2023/06/15 09:16:40;;;;;;;3.78;2.83;;;;;;;;;;5115370;28;20054;-61
2023/06/15 09:19:11;;;;;;;5.57;3.17;;;;;;;;;;5114969;28;20052;-61
2023/06/15 09:21:42;;;;;;;5.85;3.00;;;;;;;;;;5114049;28;20381;-61
2023/06/15 09:24:09;;;;;;;8.25;4.10;;;;;;;;;;5115202;28;20051;-61
2023/06/15 09:26:38;;;;;;;6.10;2.78;;;;;;;;;;5104383;28;20048;-61
2023/06/15 09:29:08;;;;;;;6.57;3.15;;;;;;;;;;5114970;28;20052;-61
2023/06/15 09:31:36;;;;;;;3.97;2.75;;;;;;;;;;5114556;27;20488;-61
2023/06/15 09:34:06;;;;;;;5.13;3.10;;;;;;;;;;5114572;28;20055;-61
2023/06/15 09:36:38;;;;;;;5.57;2.92;;;;;;;;;;5115240;28;20059;-61
2023/06/15 09:39:05;;;;;;;9.45;2.97;;;;;;;;;;5114895;28;20075;-62
2023/06/15 09:41:32;;;;;;;5.15;2.78;;;;;;;;;;5104953;27;20059;-61
2023/06/15 09:44:01;;;;;;;3.50;2.92;;;;;;;;;;5114543;28;20059;-61
2023/06/15 09:46:29;;;;;;;7.28;3.03;;;;;;;;;;5106604;28;20064;-61
2023/06/15 09:48:59;;;;;;;4.95;3.10;;;;;;;;;;5114762;28;20058;-61
2023/06/15 09:51:33;;;;;;;63.42;18.63;;;;;;;;;;5103827;27;20059;-61
2023/06/15 09:54:02;;;;;;;4.55;3.00;;;;;;;;;;5114877;27;20067;-61
2023/06/15 09:56:29;;;;;;;6.85;3.60;;;;;;;;;;5113643;28;20396;-61
2023/06/15 09:58:57;;;;;;;;;;;;;;;;;;5114690;28;20051;-62
2023/06/15 10:01:25;;;;;;;;;;;;;;;;;;5114775;28;19927;-61
2023/06/15 10:03:54;;;;;;;4.05;2.65;;;;;;;;;;5113793;28;19924;-61
2023/06/15 10:06:22;;;;;;;5.45;3.20;;;;;;;;;;5113676;27;20052;-63
2023/06/15 10:08:53;;;;;;;3.45;2.83;;;;;;;;;;5113103;27;20050;-62
2023/06/15 10:11:20;;;;;;;5.38;2.60;;;;;;;;;;5113473;28;20059;-61
2023/06/15 10:13:51;;;;;;;4.32;2.67;;;;;;;;;;5113829;28;20381;-61
2023/06/15 10:16:18;;;;;;;5.38;2.80;;;;;;;;;;5112653;27;20051;-62
2023/06/15 10:18:47;;;;;;;5.63;2.65;;;;;;;;;;5113711;28;20056;-62
2023/06/15 10:21:18;;;;;;;4.28;3.08;;;;;;;;;;5105571;28;20070;-61
2023/06/15 10:23:45;;;;;;;3.35;2.80;;;;;;;;;;5113944;28;20412;-62
2023/06/15 10:26:12;;;;;;;4.85;2.90;;;;;;;;;;5113570;27;20055;-62
2023/06/15 10:28:43;;;;;;;7.78;2.97;;;;;;;;;;5114009;28;20408;-62
2023/06/15 10:31:15;;;;;;;3.80;2.53;;;;;;;;;;5113689;28;20051;-63
2023/06/15 10:33:46;;;;;;;5.10;2.58;;;;;;;;;;5113837;28;20067;-62
2023/06/15 10:36:19;;;;;;;5.65;2.72;;;;;;;;;;5104622;28;20388;-62
2023/06/15 10:38:52;;;;;;;3.28;2.97;;;;;;;;;;5113136;28;20051;-61
2023/06/15 10:41:19;;;;;;;5.10;2.40;;;;;;;;;;5104489;27;20048;-61
2023/06/15 10:43:46;;;;;;;;;;;;;;;;;;5113808;28;20484;-62
2023/06/15 10:46:26;;;;;;;6.15;2.50;;;;;;;;;;5112756;28;19924;-61
2023/06/15 10:48:53;;;;;;;4.10;2.58;;;;;;;;;;5112307;28;20518;-62
2023/06/15 10:51:21;;;;;;;3.67;2.50;;;;;;;;;;5113174;28;20396;-61
2023/06/15 10:53:48;;;;;;;;;;;;;;;;;;5114354;28;20052;-61
2023/06/15 10:56:20;;;;;;;7.05;2.63;;;;;;;;;;5112865;28;19973;-61
2023/06/15 10:58:54;;;;;;;4.85;2.75;;;;;;;;;;5113362;28;20052;-62
2023/06/15 11:01:22;;;;;;;5.60;2.90;;;;;;;;;;5104385;28;20122;-62
2023/06/15 11:03:49;;;;;;;5.35;3.10;;;;;;;;;;5122914;27;20051;-62
2023/06/15 11:06:16;;;;;;;6.38;3.10;;;;;;;;;;5103014;27;20052;-62
2023/06/15 11:08:50;;;;;;;5.28;3.03;;;;;;;;;;5113219;28;20057;-62
2023/06/15 11:11:19;;;;;;;4.28;2.70;;;;;;;;;;5109472;28;20048;-62
2023/06/15 11:14:00;;;;;;;3.75;2.90;;;;;;;;;;5112597;28;20059;-62
2023/06/15 11:16:29;;;;;;;9.27;2.88;;;;;;;;;;5112732;28;20533;-62
2023/06/15 11:18:56;;;;;;;4.97;2.80;;;;;;;;;;5113151;28;20145;-62
2023/06/15 11:21:27;;;;;;;3.67;2.50;;;;;;;;;;5112814;28;20392;-62
2023/06/15 11:23:57;;;;;;;4.68;2.67;;;;;;;;;;5113151;28;20493;-62
2023/06/15 11:26:29;;;;;;;6.47;2.67;;;;;;;;;;5110861;28;20052;-61
2023/06/15 11:29:01;;;;;;;5.07;2.70;;;;;;;;;;5113168;28;20051;-62
2023/06/15 11:31:30;;;;;;;3.10;2.58;;;;;;;;;;5112457;28;20059;-62
2023/06/15 11:33:59;;;;;;;4.13;2.67;;;;;;;;;;5112719;28;20496;-62
2023/06/15 11:36:26;;;;;;;5.70;2.70;;;;;;;;;;5112318;28;20155;-62
2023/06/15 11:38:53;;;;;;;3.88;2.38;;;;;;;;;;5117401;28;20052;-61
2023/06/15 11:41:20;;;;;;;6.87;2.80;;;;;;;;;;5113576;28;20050;-61
2023/06/15 11:43:49;;;;;;;4.97;2.80;;;;;;;;;;5116901;28;20469;-61
2023/06/15 11:46:16;;;;;;;3.55;2.80;;;;;;;;;;5115081;28;20052;-61
2023/06/15 11:48:43;;;;;;;4.13;2.95;;;;;;;;;;5116913;28;20063;-61
2023/06/15 11:51:10;;;;;;;6.28;3.85;;;;;;;;;;5116587;28;20054;-61
2023/06/15 11:53:39;;;;;;;2.80;2.38;;;;;;;;;;5097922;27;20055;-61
2023/06/15 11:56:08;;;;;;;6.70;2.97;;;;;;;;;;5116413;28;20056;-60
2023/06/15 11:58:34;;;;;;;4.15;2.60;;;;;;;;;;5117112;28;20052;-61
2023/06/15 12:01:03;;;;;;;4.23;2.90;;;;;;;;;;5116360;28;20051;-61
2023/06/15 12:03:31;;;;;;;3.45;2.60;;;;;;;;;;5114711;28;20550;-61
2023/06/15 12:05:58;;;;;;;3.63;2.83;;;;;;;;;;5116579;28;20054;-61
2023/06/15 12:08:26;;;;;;;2.90;2.60;;;;;;;;;;5118226;27;20043;-61
2023/06/15 12:10:55;;;;;;;4.47;2.50;;;;;;;;;;5110767;27;20404;-60
2023/06/15 12:13:22;;;;;;;3.15;2.45;;;;;;;;;;5108061;28;20052;-60
2023/06/15 12:15:50;;;;;;;3.42;2.60;;;;;;;;;;5095741;28;20052;-61
2023/06/15 12:18:20;;;;;;;5.13;2.92;;;;;;;;;;5095745;28;20514;-61
2023/06/15 12:20:47;;;;;;;4.60;2.72;;;;;;;;;;5095629;28;20055;-61
2023/06/15 12:23:25;;;;;;;3.13;2.38;;;;;;;;;;5097302;27;20059;-61
2023/06/15 12:25:55;;;;;;;4.50;2.47;;;;;;;;;;5096078;28;20052;-61
2023/06/15 12:28:22;;;;;;;5.15;2.53;;;;;;;;;;5095985;28;20429;-60
2023/06/15 12:30:49;;;;;;;3.65;2.70;;;;;;;;;;5095942;28;20056;-60
2023/06/15 12:33:28;;;;;;;5.93;2.65;;;;;;;;;;5097705;27;20059;-60
2023/06/15 12:35:56;;;;;;;2.60;2.35;;;;;;;;;;5109623;28;20408;-61
2023/06/15 12:38:23;;;;;;;4.22;2.63;;;;;;;;;;5112358;28;20055;-61
2023/06/15 12:40:52;;;;;;;4.75;2.63;;;;;;;;;;5114834;28;20058;-61
2023/06/15 12:43:19;;;;;;;4.43;2.65;;;;;;;;;;5114229;28;20044;-61
2023/06/15 12:45:46;;;;;;;3.25;2.90;;;;;;;;;;5115641;28;20056;-61
2023/06/15 12:48:13;;;;;;;4.10;2.70;;;;;;;;;;5114796;28;20400;-61
2023/06/15 12:50:41;;;;;;;3.28;2.58;;;;;;;;;;5115350;28;20047;-61
2023/06/15 14:27:51;;;;;;;6.00;2.90;;;;;;;;;;4028105;28;21795;-59
2023/06/15 14:30:36;;;;;;;3.30;2.42;;;;;;;;;;4017673;28;21709;-59
2023/06/15 14:33:22;;;;;;;3.30;2.70;;;;;;;;;;4037307;28;21791;-59
2023/06/15 14:36:07;;;;;;;3.78;2.90;;;;;;;;;;4033097;28;22648;-58
2023/06/15 14:38:35;;;;;;;4.20;2.72;;;;;;;;;;4091254;27;21739;-59
2023/06/15 14:41:02;;;;;;;3.95;2.75;;;;;;;;;;5113783;27;20059;-60
2023/06/15 14:43:29;;;;;;;3.28;2.42;;;;;;;;;;5113785;28;20075;-60
2023/06/15 14:45:56;;;;;;;4.57;2.70;;;;;;;;;;5113539;28;20047;-60
2023/06/15 14:48:23;;;;;;;5.10;3.00;;;;;;;;;;5113347;28;20055;-60
2023/06/15 14:50:50;;;;;;;5.38;3.08;;;;;;;;;;5111375;28;20051;-60
2023/06/15 14:53:17;;;;;;;3.75;2.97;;;;;;;;;;5113122;27;20044;-60
2023/06/15 14:55:45;;;;;;;4.47;3.25;;;;;;;;;;5113110;28;20055;-60
2023/06/15 14:58:12;;;;;;;7.47;3.13;;;;;;;;;;5112792;28;20062;-60
2023/06/15 15:00:39;;;;;;;4.53;2.88;;;;;;;;;;5111981;28;20404;-60
2023/06/15 15:03:07;;;;;;;8.32;2.85;;;;;;;;;;5112422;28;20051;-60
2023/06/15 15:05:34;;;;;;;4.03;3.00;;;;;;;;;;5112885;28;20411;-60
2023/06/15 15:08:01;;;;;;;4.90;2.95;;;;;;;;;;5111721;27;20043;-60
2023/06/15 15:10:28;;;;;;;4.63;2.90;;;;;;;;;;5112150;28;20048;-59
2023/06/15 15:12:56;;;;;;;5.60;3.10;;;;;;;;;;5112492;28;20051;-60
2023/06/15 15:15:23;;;;;;;3.38;2.92;;;;;;;;;;5131840;27;20051;-60
2023/06/15 15:17:52;;;;;;;6.43;3.05;;;;;;;;;;5128563;28;20066;-60
2023/06/15 15:20:18;;;;;;;4.00;2.75;;;;;;;;;;5112465;28;20063;-60
2023/06/15 15:22:45;;;;;;;6.07;3.10;;;;;;;;;;5112051;28;20048;-60
2023/06/15 15:25:12;;;;;;;5.20;3.40;;;;;;;;;;5110414;28;20051;-60
2023/06/15 15:27:51;;;;;;;5.47;3.42;;;;;;;;;;5105446;28;20051;-60
2023/06/15 15:30:21;;;;;;;5.63;3.10;;;;;;;;;;5107025;28;20051;-60
2023/06/15 15:32:48;;;;;;;6.22;3.20;;;;;;;;;;5108538;28;20047;-61
2023/06/15 15:35:15;;;;;;;3.70;3.22;;;;;;;;;;5109926;28;20060;-61
2023/06/15 15:37:42;;;;;;;3.85;3.13;;;;;;;;;;5110926;28;20056;-61
2023/06/15 15:40:09;;;;;;;4.35;3.00;;;;;;;;;;5106602;28;20173;-61
2023/06/15 15:42:35;;;;;;;4.57;3.45;;;;;;;;;;5109010;28;20047;-61
2023/06/15 15:45:02;;;;;;;5.35;3.25;;;;;;;;;;5108860;28;20051;-61
2023/06/15 15:47:31;;;;;;;5.03;3.20;;;;;;;;;;5117772;28;20400;-61
2023/06/15 15:49:57;;;;;;;4.50;3.53;;;;;;;;;;5108084;28;20047;-62
2023/06/15 15:52:24;;;;;;;4.47;3.03;;;;;;;;;;5110596;28;20047;-61
2023/06/15 15:54:51;;;;;;;5.15;3.15;;;;;;;;;;5110757;28;20048;-60
2023/06/15 15:57:18;;;;;;;4.00;3.10;;;;;;;;;;5110672;28;20054;-61
2023/06/15 15:59:45;;;;;;;6.00;3.30;;;;;;;;;;5111468;28;20071;-61
2023/06/15 16:02:12;;;;;;;5.90;3.22;;;;;;;;;;5112169;28;20058;-60
2023/06/15 16:04:40;;;;;;;4.68;3.20;;;;;;;;;;5112126;28;20047;-60
2023/06/15 16:07:07;;;;;;;7.00;3.60;;;;;;;;;;5112224;28;20054;-61
2023/06/15 16:09:33;;;;;;;4.38;2.80;;;;;;;;;;5113497;28;20050;-61
2023/06/15 16:12:00;;;;;;;3.20;2.78;;;;;;;;;;5112302;28;20059;-60
2023/06/15 16:14:27;;;;;;;3.88;2.97;;;;;;;;;;5112018;28;20047;-61
2023/06/15 16:16:54;;;;;;;3.92;3.22;;;;;;;;;;5111207;28;20063;-60
2023/06/15 16:19:21;;;;;;;6.38;3.05;;;;;;;;;;5112261;28;20055;-61
2023/06/15 16:21:52;;;;;;;3.95;2.90;;;;;;;;;;5114172;27;20116;-60
2023/06/15 16:24:20;;;;;;;4.20;3.10;;;;;;;;;;5115619;27;20396;-61